Airfield :







YOU CAN JOIN US ON...

 
LOGIN :

Register | Disclaimer

   EN    FR    IT 

 









Legend :    VFR   Marginal VFR   IFR   Intensive IFR   Very Intensive IFR
Visi :
Ceiling :
>= 8 km
>= 3000ft
5 to 8 km
1000 to 3000 ft
1500m to 5 km
500 to 1000 ft
800 to 1500m
200 to 500 ft
< 800m
< 200 ft
Symbols :   Thunderstorms  Fog  Heavy snow  Heavy precipitations  Wind > 20 kt






- Airport Elevation : 192 ft
- IATA code : BGR


KBGR - Bangor International

CURRENT METAR :
  • 192353Z 31007KT 10SM CLR 09/02 A2998 RMK AO2 SLP153 T00890017 10139 20078 53021

EXPIRED METARs :
  • 192253Z 31007KT 10SM CLR 09/02 A2996 RMK AO2 SLP147 T00890017
  • 192153Z 31005KT 10SM FEW040 11/02 A2994 RMK AO2 SLP138 T01060022

TAF KBGR
Valid from the 20 at 00:00 until the 21 at 00:00 UTC


192320Z 2000/2024 30006KT P6SM SCT050
FM200300 VRB02KT P6SM FEW050
FM201700 VRB02KT P6SM SCT050 SCT200
FM202000 20003KT P6SM FEW060 BKN180



MET'MAP, your aeronautical weather chart ! - Copyright ORBIFLY December 2007 - Disclaimer

ORBIFLY MET'MAP TEAM :

Programming & Development : Alexandra Zaïnal
Concept & Development : Baudouin d'Aumeries
Co-Development & Prog : Marc-Olivier Méhu
Technical & hardware support : Manuel Goepfert

Contact : metmap@orbifly.com




SOURCES & CREDITS :

   NOAA